Woodville, MS (39669)

7:06 AM CDT on May 27, 2017 (GMT -0500)
False River | | Change Station
Active Advisory: Flood Warning

Elev 39 ft 30.72 °N, 91.48 °W | Updated 11 minutes ago

Overcast
Overcast
76 °F
Feels Like 76 °F
N
4
Wind Variable Wind from SE

Today
High -- | Low -- °F
--% Chance of Precip.
Yesterday
High -- | Low -- °F
Precip. -- in
Pressure 30.00 in
Visibility 7.0 miles
Clouds Scattered Clouds 1300 ft
Mostly Cloudy 1800 ft
Overcast 3900 ft
Dew Point 74 °F
Humidity 94%
Rainfall 0.00 in
Snow Depth Not available.
6:03 AM 8:01 PM
Waxing Crescent, 4% visible
METAR KHZR 271155Z AUTO 13003KT 7SM SCT013 BKN018 OVC039 25/24 A3000 RMK AO2 T02450235 10245 20240
Pressure 30.00 in
Visibility 7.0 miles
Clouds Scattered Clouds 1300 ft
Mostly Cloudy 1800 ft
Overcast 3900 ft
Dew Point 74 °F
Humidity 94%
Rainfall 0.00 in
Snow Depth Not available.
6:03 AM 8:01 PM
Waxing Crescent, 4% visible
METAR KHZR 271155Z AUTO 13003KT 7SM SCT013 BKN018 OVC039 25/24 A3000 RMK AO2 T02450235 10245 20240

Get Your Daily Forecast Email!

Thanks for signing up!

Be on the lookout for a verification email in your inbox.

You'll start receiving severe weather alerts in your inbox..

×

10-Day Weather Forecast

Almanac

Astronomy

May. 27, 2017 Rise Set
Actual Time
Civil Twilight
Nautical Twilight
Astronomical Twilight
Moon
Length of Visible Light
Length of Day
Tomorrow will be .
, % of the Moon is Illuminated

Today's Extremes

State Highs State Lows

Community

WunderPhotos

Category 6

Welcome to Category 6. This is the collective home for Weather Underground's featured writeups by Dr. Jeff Masters (right), Bob Henson (left), Chris Burt, and other regular contributors.

Nearby

Air Quality

  Air Quality AQ Index Pollutant
Not available.

Snow Depth

Station Depth Elevation

Earthquake Activity

City Distance Mag. Time & Date
Minimum magnitude displayed is 2.5.

Coastal Water Temperatures

Place Temperature

Stations

Nearby Weather Stations

Station Location Temp. Windchill Dew Point Humidity Wind Precip. Elev Updated Type
                   

Watches & Warnings

Flood Warning
Issued: 8:45 PM CDT May. 26, 2017 – National Weather Service


The Flood Warning continues for
the Mississippi River at Natchez
* until Monday June 12.
* At 8:00 PM Friday the stage was 54.9 feet.
* Moderate flooding is occurring and moderate flooding is forecast.
* Flood stage is 48.0 feet.
* Forecast: the river will remain steady over the weekend and into
early part of next week.
* Impact... at 55.0 feet... pond Road in Fort Adams is flooded. Eight to
eleven homes are under water in the township.
* Impact... at 53.0 feet... some camps and houses are flooded around
Fort Adams.


              Flood observed forecast 6 am crest
location stg stg day time Sat sun Mon crest time date

Lower Mississippi River
Natchez 48 54.9 Fri 08 PM 55.0 55.0 54.9 M M




Lat... Lon 3101 9170 3130 9167 3193 9129 3187 9114
      3130 9147 3100 9154